Time;durP1;ratioP1;P1;durP2;ratioP2;P2;SDS_P1;SDS_P2;PMS_P1;PMS_P2;Temp;Humidity;BMP_temperature;BMP_pressure;BME280_temperature;BME280_humidity;BME280_pressure;Samples;Min_cycle;Max_cycle;Signal;HPM_P1;HPM_P2
2023/06/21 00:02:11;;;;;;;16.88;14.40;;;19.60;99.90;;;;;;5015851;28;20042;-71
2023/06/21 00:04:36;;;;;;;17.02;14.65;;;19.70;99.90;;;;;;5015798;28;20038;-71
2023/06/21 00:07:03;;;;;;;20.67;15.40;;;19.80;99.90;;;;;;5015261;28;20046;-71
2023/06/21 00:09:28;;;;;;;19.98;14.88;;;19.70;99.90;;;;;;5014764;28;20502;-71
2023/06/21 00:11:54;;;;;;;18.67;16.67;;;19.60;99.90;;;;;;5015863;28;20040;-70
2023/06/21 00:14:20;;;;;;;18.83;16.83;;;19.70;99.90;;;;;;5015585;28;20468;-71
2023/06/21 00:16:46;;;;;;;21.60;18.48;;;19.70;99.90;;;;;;5015062;28;20537;-71
2023/06/21 00:19:12;;;;;;;22.08;18.40;;;19.70;99.90;;;;;;5015051;28;20484;-71
2023/06/21 00:21:38;;;;;;;21.33;17.88;;;19.80;99.90;;;;;;5015236;28;20046;-71
2023/06/21 00:24:07;;;;;;;26.58;20.38;;;19.50;99.90;;;;;;4997922;28;20049;-71
2023/06/21 00:26:32;;;;;;;23.02;20.33;;;19.60;99.90;;;;;;5015516;28;20061;-70
2023/06/21 00:28:58;;;;;;;22.48;20.08;;;19.60;99.90;;;;;;5015125;28;20073;-71
2023/06/21 00:31:24;;;;;;;24.15;19.90;;;19.90;99.90;;;;;;5015217;28;20465;-71
2023/06/21 00:33:49;;;;;;;29.10;22.05;;;19.90;99.90;;;;;;5015281;28;20050;-71
2023/06/21 00:36:15;;;;;;;23.63;20.35;;;19.80;99.90;;;;;;5015077;28;20036;-71
2023/06/21 00:38:41;;;;;;;26.42;22.30;;;19.80;99.90;;;;;;5014627;28;20091;-71
2023/06/21 00:41:07;;;;;;;25.35;21.80;;;19.50;99.90;;;;;;5013370;28;20040;-71
2023/06/21 00:43:33;;;;;;;26.05;20.92;;;19.80;99.90;;;;;;5013976;28;20120;-71
2023/06/21 00:45:59;;;;;;;25.25;21.08;;;19.60;99.90;;;;;;5014694;28;20110;-71
2023/06/21 00:48:28;;;;;;;29.63;22.80;;;19.80;99.90;;;;;;5014504;28;20052;-71
2023/06/21 00:50:55;;;;;;;23.92;20.85;;;19.50;99.90;;;;;;5014355;28;20042;-71
2023/06/21 00:53:21;;;;;;;28.67;21.58;;;19.80;99.90;;;;;;5014754;28;20042;-71
2023/06/21 00:55:48;;;;;;;26.73;21.95;;;19.70;99.90;;;;;;5014813;28;20065;-71
2023/06/21 00:58:14;;;;;;;25.83;22.90;;;19.80;99.90;;;;;;5014354;28;20049;-71
2023/06/21 01:00:41;;;;;;;27.50;21.17;;;19.50;99.90;;;;;;5012989;28;20418;-71
2023/06/21 01:03:07;;;;;;;26.48;22.13;;;19.80;99.90;;;;;;5014507;28;20541;-71
2023/06/21 01:05:34;;;;;;;25.58;21.27;;;19.60;99.90;;;;;;4996909;28;20042;-71
2023/06/21 01:08:21;;;;;;;30.92;22.88;;;19.60;99.90;;;;;;4994725;28;20050;-71
2023/06/21 01:11:12;;;;;;;28.30;21.00;;;19.70;99.90;;;;;;4994292;28;20042;-71
2023/06/21 01:14:17;;;;;;;26.08;21.10;;;19.80;99.90;;;;;;4994746;28;20038;-71
2023/06/21 01:16:45;;;;;;;25.10;20.30;;;19.50;99.90;;;;;;4992292;28;20625;-70
2023/06/21 01:19:28;;;;;;;26.90;20.83;;;19.70;99.90;;;;;;4994348;28;20050;-71
2023/06/21 01:21:57;;;;;;;;;;;19.60;99.90;;;;;;4993966;28;20047;-69
2023/06/21 01:24:54;;;;;;;23.83;19.70;;;19.60;99.90;;;;;;4994296;28;19917;-71
2023/06/21 01:27:40;;;;;;;27.70;21.40;;;19.50;99.90;;;;;;4994539;28;20046;-71
2023/06/21 01:30:08;;;;;;;24.60;19.60;;;19.70;99.90;;;;;;4994124;28;20043;-71
2023/06/21 01:32:35;;;;;;;23.33;19.80;;;19.70;99.90;;;;;;4994422;28;20117;-71
2023/06/21 01:35:02;;;;;;;25.05;19.52;;;19.60;99.90;;;;;;4994260;28;20567;-71
2023/06/21 01:37:27;;;;;;;22.95;19.38;;;19.60;99.90;;;;;;4993803;28;20101;-71
2023/06/21 01:39:53;;;;;;;23.73;19.50;;;19.80;99.90;;;;;;4993612;28;20506;-71
2023/06/21 01:42:19;;;;;;;23.58;19.65;;;19.60;99.90;;;;;;4976671;28;20050;-71
2023/06/21 01:44:45;;;;;;;22.88;18.48;;;19.60;99.90;;;;;;4993607;28;20042;-71
2023/06/21 01:47:12;;;;;;;23.23;18.27;;;19.80;99.90;;;;;;4993426;28;20049;-71
2023/06/21 01:49:39;;;;;;;24.67;19.08;;;19.60;99.90;;;;;;4993146;28;20117;-71
2023/06/21 01:52:05;;;;;;;24.48;20.05;;;19.60;99.90;;;;;;4993198;28;20056;-71
2023/06/21 01:54:33;;;;;;;24.08;20.05;;;19.60;99.90;;;;;;4992491;28;20042;-71
2023/06/21 01:57:00;;;;;;;23.95;19.05;;;19.50;99.90;;;;;;4993418;28;20049;-71
2023/06/21 01:59:27;;;;;;;24.63;18.75;;;19.60;99.90;;;;;;4991845;28;20060;-71
2023/06/21 02:01:53;;;;;;;25.30;18.85;;;19.70;99.90;;;;;;4991736;28;20145;-71
2023/06/21 02:04:20;;;;;;;24.40;18.92;;;19.80;99.90;;;;;;4992402;28;20054;-71
2023/06/21 02:06:48;;;;;;;23.13;18.35;;;19.80;99.90;;;;;;4992985;28;20193;-71
2023/06/21 02:09:14;;;;;;;25.50;18.17;;;19.70;99.90;;;;;;4991765;28;20069;-70
2023/06/21 02:11:40;;;;;;;23.67;17.92;;;19.70;99.90;;;;;;4991983;28;20070;-71
2023/06/21 02:14:07;;;;;;;24.40;19.02;;;19.80;99.90;;;;;;4992109;28;20057;-71
2023/06/21 02:16:33;;;;;;;24.85;19.83;;;19.60;99.90;;;;;;4991448;28;20077;-70
2023/06/21 02:18:59;;;;;;;24.67;19.80;;;19.60;99.90;;;;;;4993147;28;20081;-71
2023/06/21 02:21:24;;;;;;;23.88;20.50;;;19.70;99.90;;;;;;4991342;28;20052;-71
2023/06/21 02:23:50;;;;;;;27.52;20.05;;;19.60;99.90;;;;;;4993000;28;20193;-71
2023/06/21 02:26:17;;;;;;;25.08;19.55;;;19.50;99.90;;;;;;4993047;28;20042;-71
2023/06/21 02:28:43;;;;;;;24.50;19.80;;;19.50;99.90;;;;;;4992513;28;20038;-71
2023/06/21 02:31:09;;;;;;;26.20;19.58;;;19.60;99.90;;;;;;4992393;28;20038;-71
2023/06/21 02:33:34;;;;;;;22.75;19.67;;;19.70;99.90;;;;;;4992964;28;20092;-71
2023/06/21 02:36:00;;;;;;;28.67;20.73;;;19.70;99.90;;;;;;4992900;28;20057;-71
2023/06/21 02:38:27;;;;;;;27.67;21.98;;;19.50;99.90;;;;;;4991044;28;20049;-71
2023/06/21 02:40:53;;;;;;;29.30;21.63;;;19.60;99.90;;;;;;4991554;28;20047;-71
2023/06/21 02:43:18;;;;;;;37.17;24.85;;;19.40;99.90;;;;;;4992674;28;20084;-71
2023/06/21 02:45:45;;;;;;;33.80;26.08;;;19.40;99.90;;;;;;4992553;28;20120;-71
2023/06/21 02:48:11;;;;;;;38.38;27.88;;;19.40;99.90;;;;;;4990906;28;20514;-71
2023/06/21 02:50:36;;;;;;;35.95;28.38;;;19.30;99.90;;;;;;4992078;28;20078;-71
2023/06/21 02:53:02;;;;;;;34.15;26.67;;;19.30;99.90;;;;;;4991290;28;20078;-71
2023/06/21 02:55:28;;;;;;;38.85;28.60;;;19.50;99.90;;;;;;4991168;28;20126;-71
2023/06/21 02:57:54;;;;;;;36.63;27.45;;;19.40;99.90;;;;;;4990795;28;20042;-71
2023/06/21 03:00:28;;;;;;;36.42;28.70;;;19.40;99.90;;;;;;4991881;28;20117;-71
2023/06/21 03:02:59;;;;;;;39.50;28.38;;;19.30;99.90;;;;;;4990571;28;20093;-71
2023/06/21 03:05:26;;;;;;;41.35;30.05;;;19.20;99.90;;;;;;4992403;28;20043;-71
2023/06/21 03:07:52;;;;;;;38.70;31.30;;;19.20;99.90;;;;;;4990682;28;20050;-70
2023/06/21 03:10:19;;;;;;;43.53;31.67;;;19.20;99.90;;;;;;4991717;28;20461;-71
2023/06/21 03:12:45;;;;;;;42.90;31.27;;;19.20;99.90;;;;;;4990973;28;20455;-71
2023/06/21 03:15:11;;;;;;;40.45;30.60;;;19.30;99.90;;;;;;4990166;28;20147;-71
2023/06/21 03:17:37;;;;;;;42.00;31.35;;;19.10;99.90;;;;;;4990563;28;20088;-71
2023/06/21 03:20:13;;;;;;;43.83;32.13;;;19.30;99.90;;;;;;4990463;28;20046;-71
2023/06/21 03:22:43;;;;;;;45.92;30.73;;;19.10;99.90;;;;;;4991231;28;20050;-70
2023/06/21 03:25:13;;;;;;;44.00;31.38;;;19.30;99.90;;;;;;4992134;28;20101;-71
2023/06/21 03:27:39;;;;;;;44.88;32.13;;;19.20;99.90;;;;;;4990488;28;20096;-71
2023/06/21 03:30:06;;;;;;;46.58;33.08;;;19.00;99.90;;;;;;4990297;28;20043;-71
2023/06/21 03:32:32;;;;;;;44.90;31.08;;;19.10;99.90;;;;;;4990785;28;20034;-71
2023/06/21 03:34:58;;;;;;;39.50;31.20;;;19.20;99.90;;;;;;4992065;28;20108;-71
2023/06/21 03:37:27;;;;;;;44.20;32.05;;;19.20;99.90;;;;;;4990507;28;20069;-71
2023/06/21 03:39:53;;;;;;;44.85;33.90;;;18.90;99.90;;;;;;4990381;28;20054;-71
2023/06/21 03:42:19;;;;;;;47.25;32.97;;;19.00;99.90;;;;;;4992194;28;20073;-71
2023/06/21 03:44:45;;;;;;;53.85;36.08;;;19.00;99.90;;;;;;4990961;28;20042;-71
2023/06/21 03:47:11;;;;;;;53.53;36.22;;;19.00;99.90;;;;;;4991747;28;20045;-71
2023/06/21 03:49:38;;;;;;;52.88;37.90;;;19.20;99.90;;;;;;4991360;28;20537;-71
2023/06/21 03:52:04;;;;;;;53.92;36.10;;;19.00;99.90;;;;;;4990997;28;20039;-71
2023/06/21 03:54:30;;;;;;;56.10;37.58;;;19.00;99.90;;;;;;4990487;28;20538;-71
2023/06/21 03:56:56;;;;;;;54.95;37.60;;;19.10;99.90;;;;;;4991686;28;20042;-71
2023/06/21 03:59:21;;;;;;;55.85;37.17;;;19.00;99.90;;;;;;4991499;28;20034;-71
2023/06/21 04:01:47;;;;;;;57.53;37.40;;;19.20;99.90;;;;;;4991955;28;20441;-71
2023/06/21 04:04:13;;;;;;;55.25;36.92;;;19.10;99.90;;;;;;4991785;28;20034;-71
2023/06/21 04:06:38;;;;;;;58.55;36.85;;;19.00;99.90;;;;;;4990374;28;20046;-71
2023/06/21 04:09:05;;;;;;;54.47;36.42;;;19.00;99.90;;;;;;4991514;28;20045;-71
2023/06/21 04:11:31;;;;;;;60.50;38.75;;;19.10;99.90;;;;;;4991494;28;20047;-71
2023/06/21 04:13:57;;;;;;;60.30;39.78;;;19.20;99.90;;;;;;4974226;28;20100;-71
2023/06/21 04:16:23;;;;;;;57.17;38.58;;;19.20;99.90;;;;;;4994432;28;20042;-71
2023/06/21 04:18:48;;;;;;;56.88;39.47;;;19.00;99.90;;;;;;4994758;28;20034;-71
2023/06/21 04:21:14;;;;;;;59.13;37.72;;;19.20;99.90;;;;;;4994730;28;20117;-71
2023/06/21 04:23:40;;;;;;;62.85;38.92;;;19.00;99.90;;;;;;4994953;28;20042;-71
2023/06/21 04:26:06;;;;;;;57.40;38.70;;;19.10;99.90;;;;;;4995312;28;20603;-71
2023/06/21 04:28:32;;;;;;;54.63;37.53;;;19.20;99.90;;;;;;4994892;28;20034;-70
2023/06/21 04:31:00;;;;;;;60.35;39.33;;;19.10;99.90;;;;;;4994532;28;20086;-71
2023/06/21 04:33:28;;;;;;;58.67;36.35;;;19.20;99.90;;;;;;4993758;28;20069;-71
2023/06/21 04:35:54;;;;;;;60.40;39.30;;;19.10;99.90;;;;;;4994832;28;20068;-71
2023/06/21 04:38:20;;;;;;;60.97;37.60;;;19.10;99.90;;;;;;4994546;28;20046;-71
2023/06/21 04:40:45;;;;;;;59.88;37.70;;;19.30;99.90;;;;;;4993415;28;20042;-71
2023/06/21 04:43:11;;;;;;;56.80;36.67;;;19.20;99.90;;;;;;4993468;28;20042;-71
2023/06/21 04:45:37;;;;;;;60.78;37.13;;;19.30;99.90;;;;;;4994749;28;20060;-71
2023/06/21 04:48:04;;;;;;;56.13;36.17;;;19.30;99.90;;;;;;4977040;28;20042;-71
2023/06/21 04:50:30;;;;;;;55.55;35.80;;;19.40;99.90;;;;;;4994113;28;20038;-71
2023/06/21 04:52:59;;;;;;;53.13;35.92;;;19.30;99.90;;;;;;4994740;28;20047;-71
2023/06/21 04:55:26;;;;;;;54.80;34.03;;;19.40;99.90;;;;;;4993288;28;20048;-71
2023/06/21 04:57:51;;;;;;;51.63;33.30;;;19.30;99.90;;;;;;4994278;28;20406;-71
2023/06/21 05:00:18;;;;;;;56.83;36.85;;;19.30;99.90;;;;;;4993923;28;20093;-71
2023/06/21 05:02:44;;;;;;;55.22;34.97;;;19.40;99.90;;;;;;4993403;28;20429;-71
2023/06/21 05:05:09;;;;;;;50.85;35.08;;;19.20;99.90;;;;;;4994157;28;20092;-71
2023/06/21 05:07:37;;;;;;;51.47;33.63;;;19.20;99.90;;;;;;4994185;28;20042;-71
2023/06/21 05:10:06;;;;;;;47.67;30.73;;;19.30;99.90;;;;;;4992119;28;20562;-71
2023/06/21 05:12:31;;;;;;;49.13;31.25;;;19.20;99.90;;;;;;4994407;28;20053;-71
2023/06/21 05:14:57;;;;;;;51.30;32.33;;;19.40;99.90;;;;;;4994114;28;20038;-71
2023/06/21 05:17:22;;;;;;;49.50;32.38;;;19.30;99.90;;;;;;4993849;28;20038;-71
2023/06/21 05:19:48;;;;;;;47.95;31.02;;;19.30;99.90;;;;;;4993462;28;20038;-71
2023/06/21 05:22:14;;;;;;;46.80;31.48;;;19.20;99.90;;;;;;4994227;28;20057;-71
2023/06/21 05:24:40;;;;;;;46.28;30.80;;;19.40;99.90;;;;;;4993034;28;20038;-71
2023/06/21 05:27:06;;;;;;;43.53;29.55;;;19.30;99.90;;;;;;4992715;28;20092;-71
2023/06/21 05:29:31;;;;;;;46.00;30.10;;;19.50;99.90;;;;;;4993302;28;20049;-71
2023/06/21 05:31:57;;;;;;;44.80;30.30;;;19.70;99.90;;;;;;4993918;28;20040;-71
2023/06/21 05:34:22;;;;;;;44.35;29.10;;;19.70;99.90;;;;;;4993739;28;20042;-71
2023/06/21 05:36:48;;;;;;;37.13;25.60;;;19.70;99.90;;;;;;4993430;28;20549;-71
2023/06/21 05:39:13;;;;;;;39.30;27.27;;;19.70;99.90;;;;;;4993036;28;20042;-71
2023/06/21 05:41:39;;;;;;;36.22;25.58;;;19.80;99.90;;;;;;4993702;28;20039;-71
2023/06/21 05:44:04;;;;;;;37.45;24.60;;;19.80;99.90;;;;;;4993726;28;20050;-71
2023/06/21 05:46:30;;;;;;;37.15;25.23;;;19.90;99.90;;;;;;4992805;28;20126;-71
2023/06/21 05:48:56;;;;;;;33.17;22.63;;;19.80;99.90;;;;;;4992278;28;20069;-71
2023/06/21 05:51:22;;;;;;;35.60;23.30;;;19.70;99.90;;;;;;4993335;28;20038;-71
2023/06/21 05:53:47;;;;;;;36.40;23.88;;;19.80;99.90;;;;;;4993626;28;20085;-71
2023/06/21 05:56:13;;;;;;;34.05;22.50;;;19.70;99.90;;;;;;4993571;28;20116;-71
2023/06/21 05:58:38;;;;;;;37.50;21.88;;;20.00;99.90;;;;;;4992976;28;20034;-71
2023/06/21 06:01:04;;;;;;;31.08;21.30;;;20.00;99.90;;;;;;4992914;28;20054;-71
2023/06/21 06:03:29;;;;;;;36.22;22.67;;;20.10;99.90;;;;;;4992841;28;20043;-71
2023/06/21 06:05:55;;;;;;;34.03;20.77;;;20.20;99.90;;;;;;4993438;28;20050;-72
2023/06/21 06:08:21;;;;;;;30.38;19.45;;;20.20;99.90;;;;;;4992900;28;20510;-71
2023/06/21 06:10:48;;;;;;;29.92;20.10;;;20.40;99.90;;;;;;4992810;28;20050;-71
2023/06/21 06:13:13;;;;;;;30.27;18.33;;;20.40;99.90;;;;;;4993149;28;20478;-72
2023/06/21 06:15:39;;;;;;;31.58;18.67;;;20.30;99.90;;;;;;4991799;28;20101;-70
2023/06/21 06:18:04;;;;;;;28.27;17.80;;;20.50;99.90;;;;;;4992550;28;20061;-70
2023/06/21 06:20:30;;;;;;;27.52;17.73;;;20.70;99.90;;;;;;4991376;28;20157;-70
2023/06/21 06:22:56;;;;;;;23.23;15.95;;;21.00;99.90;;;;;;4993116;28;20069;-70
2023/06/21 06:25:21;;;;;;;24.95;16.38;;;21.00;99.90;;;;;;4993015;28;20044;-70
2023/06/21 06:27:47;;;;;;;24.65;16.25;;;21.30;99.90;;;;;;4992578;28;20038;-70
2023/06/21 06:30:12;;;;;;;21.20;15.25;;;21.50;99.90;;;;;;4989048;28;20525;-70
2023/06/21 06:32:38;;;;;;;19.52;14.13;;;21.50;99.90;;;;;;4975819;28;20066;-70
2023/06/21 06:35:05;;;;;;;22.23;15.15;;;21.70;99.90;;;;;;4973456;28;20038;-70
2023/06/21 06:37:30;;;;;;;19.10;14.88;;;22.00;99.90;;;;;;4972816;28;20129;-69
2023/06/21 06:39:56;;;;;;;20.40;13.70;;;22.40;99.90;;;;;;4972375;28;20090;-70
2023/06/21 06:42:21;;;;;;;20.13;14.18;;;22.50;99.90;;;;;;4972034;28;20046;-70
2023/06/21 06:44:47;;;;;;;26.13;14.25;;;22.70;99.90;;;;;;4973073;28;20078;-70
2023/06/21 06:47:13;;;;;;;18.63;13.60;;;22.90;99.90;;;;;;4972725;28;20035;-70
2023/06/21 06:49:39;;;;;;;22.30;13.90;;;22.90;99.90;;;;;;4972719;28;20046;-70
2023/06/21 06:52:05;;;;;;;20.70;13.38;;;22.80;99.90;;;;;;4973319;28;20034;-70
2023/06/21 06:54:31;;;;;;;15.95;12.82;;;23.10;99.90;;;;;;4973292;28;20122;-71
2023/06/21 06:56:57;;;;;;;14.80;11.90;;;23.10;99.90;;;;;;4972613;28;20121;-70
2023/06/21 06:59:23;;;;;;;17.75;12.88;;;23.20;99.90;;;;;;4972525;28;20083;-70
2023/06/21 07:01:49;;;;;;;17.20;11.90;;;23.50;99.90;;;;;;4972901;28;20499;-71
2023/06/21 07:04:15;;;;;;;17.60;12.25;;;23.60;99.90;;;;;;4973163;28;20035;-70
2023/06/21 07:06:41;;;;;;;17.13;12.10;;;23.60;99.90;;;;;;4972700;28;20038;-70
2023/06/21 07:09:08;;;;;;;18.50;11.85;;;23.70;99.90;;;;;;4972763;28;20069;-70
2023/06/21 07:11:37;;;;;;;19.35;10.98;;;23.80;99.90;;;;;;4972774;28;20054;-71
2023/06/21 07:14:02;;;;;;;17.50;10.20;;;23.90;99.90;;;;;;4972793;28;20043;-68
2023/06/21 07:16:34;;;;;;;15.55;10.10;;;24.00;99.90;;;;;;4971241;28;20376;-69
2023/06/21 07:18:59;;;;;;;13.00;8.95;;;24.10;99.90;;;;;;4972865;28;20054;-69
2023/06/21 07:21:27;;;;;;;15.70;10.10;;;24.30;99.90;;;;;;4972414;28;20403;-69
2023/06/21 07:23:53;;;;;;;12.23;8.77;;;24.20;99.90;;;;;;4972828;28;20046;-70
2023/06/21 07:26:18;;;;;;;13.63;8.75;;;24.30;99.90;;;;;;4972743;28;20039;-71
2023/06/21 07:28:44;;;;;;;13.90;8.73;;;24.60;99.90;;;;;;4972168;28;20085;-71
2023/06/21 07:31:10;;;;;;;13.10;9.40;;;24.60;99.90;;;;;;4972168;28;20039;-72
2023/06/21 07:33:35;;;;;;;10.98;8.55;;;24.60;99.90;;;;;;4972864;28;20038;-71
2023/06/21 07:36:01;;;;;;;12.90;8.35;;;24.80;99.90;;;;;;4972778;28;20046;-71
2023/06/21 07:38:27;;;;;;;9.50;7.25;;;25.00;99.90;;;;;;4972110;28;20547;-71
2023/06/21 07:40:52;;;;;;;10.32;7.93;;;25.10;99.90;;;;;;4970981;28;20050;-71
2023/06/21 07:43:18;;;;;;;11.90;7.50;;;25.20;99.90;;;;;;4972557;28;20038;-71
2023/06/21 07:45:43;;;;;;;11.80;8.50;;;24.80;99.90;;;;;;4972514;28;20047;-72
2023/06/21 07:48:09;;;;;;;10.15;7.10;;;24.60;99.90;;;;;;4971232;28;20151;-71
2023/06/21 07:50:34;;;;;;;12.65;7.32;;;24.60;99.90;;;;;;4973745;28;20042;-71
2023/06/21 07:53:00;;;;;;;15.70;7.80;;;24.40;99.90;;;;;;4976381;28;20117;-71
2023/06/21 07:55:26;;;;;;;10.57;7.00;;;24.40;99.90;;;;;;4976329;28;20051;-71
2023/06/21 07:57:51;;;;;;;11.02;7.47;;;24.40;99.90;;;;;;4975897;28;20457;-71
2023/06/21 08:00:17;;;;;;;9.55;6.85;;;24.80;99.90;;;;;;4975599;28;20050;-71
2023/06/21 08:02:49;;;;;;;10.38;7.00;;;24.50;99.90;;;;;;4976397;28;20043;-71
2023/06/21 08:05:15;;;;;;;9.80;7.13;;;24.50;99.90;;;;;;4976118;28;20407;-71
2023/06/21 08:07:41;;;;;;;13.00;7.75;;;24.40;99.90;;;;;;4976506;28;20045;-72
2023/06/21 08:10:08;;;;;;;8.80;6.40;;;24.20;99.90;;;;;;4979572;28;20101;-71
2023/06/21 08:12:33;;;;;;;9.52;5.85;;;24.30;99.90;;;;;;4975876;28;20091;-71
2023/06/21 08:14:59;;;;;;;9.07;6.35;;;24.50;99.90;;;;;;4975783;28;20057;-72
2023/06/21 08:17:25;;;;;;;9.05;6.00;;;24.70;99.90;;;;;;4975741;28;20039;-72
2023/06/21 08:19:51;;;;;;;10.18;6.13;;;24.70;99.90;;;;;;4975238;28;20503;-72
2023/06/21 08:22:16;;;;;;;8.73;6.15;;;24.90;99.90;;;;;;4975872;28;20096;-72
2023/06/21 08:24:42;;;;;;;7.40;6.13;;;25.10;99.90;;;;;;4975727;28;20053;-70
2023/06/21 08:27:08;;;;;;;8.93;6.90;;;25.10;99.90;;;;;;4974014;28;20553;-70
2023/06/21 08:29:33;;;;;;;9.88;6.72;;;25.20;99.90;;;;;;4975255;28;20079;-71
2023/06/21 08:31:59;;;;;;;9.30;5.90;;;25.20;99.90;;;;;;4987598;28;20035;-70
2023/06/21 08:34:24;;;;;;;11.30;6.40;;;25.50;99.90;;;;;;4991371;28;20038;-70
2023/06/21 08:36:50;;;;;;;7.00;5.10;;;25.80;99.90;;;;;;4994637;28;20469;-70
2023/06/21 08:39:15;;;;;;;9.07;5.85;;;25.80;99.90;;;;;;4994247;28;20442;-70
2023/06/21 08:41:42;;;;;;;8.52;5.45;;;25.90;99.90;;;;;;4994797;28;20092;-70
2023/06/21 08:44:08;;;;;;;7.47;5.80;;;26.00;99.90;;;;;;4994674;28;20054;-70
2023/06/21 08:46:35;;;;;;;7.03;5.43;;;26.00;99.90;;;;;;4994628;28;20034;-71
2023/06/21 08:49:05;;;;;;;8.20;4.90;;;26.00;99.90;;;;;;4994534;28;20050;-71
2023/06/21 08:51:35;;;;;;;8.55;5.22;;;25.80;99.90;;;;;;4994380;28;20060;-70
2023/06/21 08:54:07;;;;;;;8.20;5.78;;;25.90;99.90;;;;;;4994684;28;20065;-71
2023/06/21 08:56:39;;;;;;;7.95;5.03;;;26.00;99.90;;;;;;4993970;28;20064;-70
2023/06/21 08:59:23;;;;;;;6.20;4.90;;;25.90;99.90;;;;;;4985599;28;20049;-71
2023/06/21 09:01:56;;;;;;;6.32;4.30;;;25.80;99.90;;;;;;4985045;28;20045;-71
2023/06/21 09:04:25;;;;;;;9.48;5.30;;;25.80;99.90;;;;;;4992870;28;20037;-70
2023/06/21 09:06:51;;;;;;;6.38;3.92;;;25.80;99.90;;;;;;4997710;28;20113;-71
2023/06/21 09:09:18;;;;;;;7.00;4.57;;;25.60;99.90;;;;;;4993077;28;20406;-70
2023/06/21 09:11:46;;;;;;;6.60;4.70;;;25.60;99.90;;;;;;4993875;28;20498;-70
2023/06/21 09:14:12;;;;;;;6.03;4.60;;;25.50;99.90;;;;;;4994320;28;20035;-70
2023/06/21 09:16:38;;;;;;;7.68;4.43;;;25.50;99.90;;;;;;4993945;28;20038;-70
2023/06/21 09:19:04;;;;;;;6.40;4.47;;;25.50;99.90;;;;;;4994127;28;20057;-70
2023/06/21 09:21:31;;;;;;;6.28;4.35;;;25.20;99.90;;;;;;4993608;28;20065;-70
2023/06/21 09:23:56;;;;;;;5.82;4.10;;;25.20;99.90;;;;;;4994228;28;20519;-70
2023/06/21 09:26:22;;;;;;;6.63;4.35;;;25.30;99.90;;;;;;4994149;28;20037;-70
2023/06/21 09:28:48;;;;;;;6.55;3.60;;;25.60;99.90;;;;;;4993605;28;20630;-71
2023/06/21 09:31:13;;;;;;;8.23;4.55;;;25.70;99.90;;;;;;4990399;28;20031;-70
2023/06/21 09:33:40;;;;;;;5.80;3.70;;;25.90;99.90;;;;;;4983333;28;20038;-70
2023/06/21 09:36:06;;;;;;;7.28;3.47;;;26.10;99.90;;;;;;4983296;28;20051;-70
2023/06/21 09:38:33;;;;;;;6.68;3.90;;;26.10;99.90;;;;;;4983436;28;20105;-70
2023/06/21 09:41:02;;;;;;;5.25;4.00;;;26.30;99.90;;;;;;4982653;28;20105;-70
2023/06/21 09:43:28;;;;;;;8.55;3.88;;;26.10;99.90;;;;;;4988373;28;20560;-70
2023/06/21 09:46:08;;;;;;;5.45;3.50;;;26.20;99.90;;;;;;4993723;28;20050;-71
2023/06/21 09:48:36;;;;;;;5.40;4.03;;;26.20;99.90;;;;;;4992970;28;20085;-70
2023/06/21 09:51:03;;;;;;;9.55;3.40;;;26.20;99.90;;;;;;4993265;28;20073;-71
2023/06/21 09:53:28;;;;;;;6.85;3.42;;;26.40;99.80;;;;;;4992146;28;20042;-71
2023/06/21 09:55:56;;;;;;;5.70;3.75;;;26.30;97.10;;;;;;4993506;28;20118;-70
2023/06/21 09:58:22;;;;;;;5.88;3.70;;;26.30;97.30;;;;;;4992770;28;20053;-71
2023/06/21 10:00:48;;;;;;;6.35;4.13;;;26.40;96.80;;;;;;4992708;28;20114;-70
2023/06/21 10:03:14;;;;;;;6.53;4.20;;;26.20;96.50;;;;;;4992942;28;20137;-71
2023/06/21 10:05:53;;;;;;;6.97;3.17;;;25.80;96.70;;;;;;4993415;28;20042;-70
2023/06/21 10:08:26;;;;;;;6.00;3.83;;;26.00;95.30;;;;;;4986795;28;20111;-71
2023/06/21 10:10:52;;;;;;;7.68;3.00;;;26.20;97.30;;;;;;4982465;28;20042;-70
2023/06/21 10:13:27;;;;;;;6.50;2.55;;;26.30;95.60;;;;;;4983406;28;20034;-70
2023/06/21 10:15:55;;;;;;;5.30;2.80;;;26.30;93.90;;;;;;4983652;28;20031;-70
2023/06/21 10:18:22;;;;;;;6.40;3.28;;;26.30;94.90;;;;;;4981547;28;20598;-71
2023/06/21 10:20:54;;;;;;;5.55;3.70;;;26.30;94.30;;;;;;4982767;28;20030;-71
2023/06/21 10:23:20;;;;;;;8.48;3.92;;;26.40;94.30;;;;;;4983896;28;20041;-70
2023/06/21 10:25:48;;;;;;;6.10;3.40;;;26.40;94.80;;;;;;4982248;28;20176;-70
2023/06/21 10:28:16;;;;;;;4.53;2.78;;;26.50;94.40;;;;;;4980367;28;20109;-71
2023/06/21 10:30:44;;;;;;;5.45;3.10;;;26.20;94.00;;;;;;4973114;28;20050;-70
2023/06/21 10:33:13;;;;;;;5.05;3.78;;;26.20;94.20;;;;;;4972368;28;20399;-70
2023/06/21 10:35:45;;;;;;;8.20;4.07;;;26.20;93.90;;;;;;4973438;28;20049;-70
2023/06/21 10:38:19;;;;;;;5.97;3.60;;;26.10;93.00;;;;;;4972866;28;20112;-70
2023/06/21 10:40:45;;;;;;;5.13;3.15;;;26.10;93.40;;;;;;4972744;28;20090;-71
2023/06/21 10:43:11;;;;;;;4.78;3.38;;;25.90;94.80;;;;;;4973439;28;20518;-71
2023/06/21 10:45:38;;;;;;;7.65;4.15;;;25.80;95.50;;;;;;4972827;28;20506;-71
2023/06/21 10:48:06;;;;;;;4.93;3.72;;;25.60;95.60;;;;;;4972902;28;20090;-71
2023/06/21 10:50:31;;;;;;;4.70;3.15;;;25.40;95.10;;;;;;4972730;28;20047;-70
2023/06/21 10:52:58;;;;;;;4.85;3.00;;;25.30;96.30;;;;;;4972867;28;20047;-71
2023/06/21 10:55:24;;;;;;;4.68;2.95;;;25.20;97.60;;;;;;4973189;28;20082;-71
2023/06/21 10:57:53;;;;;;;5.05;3.58;;;25.20;97.50;;;;;;4971731;28;20461;-71
2023/06/21 11:00:21;;;;;;;5.53;3.05;;;25.00;97.40;;;;;;4972672;28;20074;-70
2023/06/21 11:02:47;;;;;;;5.20;3.10;;;25.10;97.50;;;;;;4973042;28;20053;-70
2023/06/21 11:05:23;;;;;;;5.25;2.83;;;25.10;98.40;;;;;;4971794;28;20042;-70
2023/06/21 11:07:49;;;;;;;5.15;3.25;;;25.10;97.70;;;;;;4972491;28;20046;-70
2023/06/21 11:10:15;;;;;;;3.75;2.83;;;25.10;97.30;;;;;;4972589;28;20046;-69
2023/06/21 11:12:41;;;;;;;4.68;2.38;;;25.20;98.50;;;;;;4975337;28;20045;-70
2023/06/21 11:15:07;;;;;;;4.88;2.53;;;25.20;98.10;;;;;;4972880;28;20077;-70
2023/06/21 11:17:36;;;;;;;5.35;2.67;;;25.40;97.30;;;;;;4972528;28;20042;-70
2023/06/21 11:20:20;;;;;;;3.35;2.17;;;25.40;96.70;;;;;;4972314;28;20102;-69
2023/06/21 11:22:56;;;;;;;4.40;2.75;;;25.40;96.20;;;;;;4972737;28;20039;-70
2023/06/21 11:25:22;;;;;;;3.72;2.70;;;25.30;97.00;;;;;;4974014;28;20180;-69
2023/06/21 11:28:19;;;;;;;7.93;3.38;;;25.20;97.20;;;;;;4975487;28;20129;-71
2023/06/21 11:31:03;;;;;;;4.43;2.83;;;25.20;97.70;;;;;;4986727;28;20128;-69
2023/06/21 11:33:30;;;;;;;5.32;2.47;;;25.30;98.00;;;;;;4986753;28;20081;-69
2023/06/21 11:36:02;;;;;;;3.80;2.38;;;25.60;98.80;;;;;;4990575;28;20053;-69
2023/06/21 11:38:29;;;;;;;5.45;2.10;;;25.70;97.90;;;;;;5018666;22;20047;-73
2023/06/21 11:40:56;;;;;;;4.80;2.97;;;25.80;97.70;;;;;;4995463;28;20133;-73
2023/06/21 11:43:21;;;;;;;4.28;2.58;;;25.70;97.70;;;;;;4996007;28;20419;-73
2023/06/21 11:46:01;;;;;;;4.35;2.17;;;25.90;97.40;;;;;;4978350;28;20039;-73
2023/06/21 11:48:28;;;;;;;3.42;2.10;;;25.80;97.30;;;;;;4995081;28;20038;-73
2023/06/21 11:50:55;;;;;;;3.70;1.65;;;25.60;96.60;;;;;;4993962;28;20034;-73
2023/06/21 11:53:28;;;;;;;3.55;1.98;;;25.70;97.80;;;;;;4995871;28;20450;-73
2023/06/21 11:56:03;;;;;;;3.40;1.38;;;25.90;97.00;;;;;;4994401;28;20524;-73
2023/06/21 11:58:29;;;;;;;2.80;1.60;;;26.10;97.00;;;;;;4995149;28;20074;-73
2023/06/21 12:00:55;;;;;;;4.35;2.38;;;26.10;96.20;;;;;;4994157;28;20057;-73
2023/06/21 12:03:22;;;;;;;2.75;1.85;;;26.30;95.50;;;;;;4994230;28;20108;-73
2023/06/21 12:05:53;;;;;;;3.10;1.80;;;26.40;94.70;;;;;;4994193;28;20052;-73
2023/06/21 12:08:22;;;;;;;3.22;1.90;;;26.30;94.00;;;;;;4993712;28;20046;-73
2023/06/21 12:10:48;;;;;;;2.22;1.90;;;26.10;94.20;;;;;;4993661;28;20065;-73
2023/06/21 12:13:15;;;;;;;2.63;1.95;;;26.10;94.30;;;;;;4994104;28;20046;-73
2023/06/21 12:15:54;;;;;;;5.30;2.00;;;26.10;95.00;;;;;;4994074;28;20161;-73
2023/06/21 12:18:22;;;;;;;1.88;1.30;;;26.20;94.50;;;;;;4993857;28;20046;-73
2023/06/21 12:20:54;;;;;;;2.17;1.83;;;26.30;93.50;;;;;;4993786;28;20038;-74
2023/06/21 12:23:21;;;;;;;3.72;1.75;;;26.40;92.10;;;;;;4993855;28;20052;-74
2023/06/21 12:25:49;;;;;;;3.38;1.80;;;26.40;91.30;;;;;;4993904;28;20053;-74
2023/06/21 12:28:16;;;;;;;3.20;1.80;;;26.20;91.60;;;;;;5001144;28;20040;-74
2023/06/21 12:31:02;;;;;;;2.40;1.80;;;26.10;92.60;;;;;;5002126;28;20459;-73
2023/06/21 12:33:34;;;;;;;2.17;1.75;;;26.20;91.50;;;;;;4958331;28;20055;-73
2023/06/21 12:36:16;;;;;;;2.60;2.17;;;26.30;91.30;;;;;;4974042;28;20109;-74
2023/06/21 12:38:58;;;;;;;3.13;2.25;;;26.20;91.20;;;;;;4957660;28;20050;-74